sensor_id;sensor_type;location;lat;lon;timestamp;pressure;altitude;pressure_sealevel;temperature;humidity
55070;BME280;40967;52.070;8.596;2023-01-29T00:02:01;101893.25;;;-0.94;91.89
55070;BME280;40967;52.070;8.596;2023-01-29T00:04:27;101887.59;;;-0.91;91.70
55070;BME280;40967;52.070;8.596;2023-01-29T00:06:53;101891.91;;;-0.90;91.74
55070;BME280;40967;52.070;8.596;2023-01-29T00:09:18;101887.41;;;-0.89;91.80
55070;BME280;40967;52.070;8.596;2023-01-29T00:11:44;101882.94;;;-0.89;91.83
55070;BME280;40967;52.070;8.596;2023-01-29T00:14:10;101872.44;;;-0.90;91.39
55070;BME280;40967;52.070;8.596;2023-01-29T00:16:35;101867.13;;;-0.90;91.73
55070;BME280;40967;52.070;8.596;2023-01-29T00:19:01;101867.75;;;-0.88;91.90
55070;BME280;40967;52.070;8.596;2023-01-29T00:21:27;101869.44;;;-0.87;91.72
55070;BME280;40967;52.070;8.596;2023-01-29T00:23:55;101867.63;;;-0.87;91.72
55070;BME280;40967;52.070;8.596;2023-01-29T00:26:21;101855.94;;;-0.94;91.40
55070;BME280;40967;52.070;8.596;2023-01-29T00:28:47;101871.25;;;-0.88;91.75
55070;BME280;40967;52.070;8.596;2023-01-29T00:31:17;101870.13;;;-0.85;91.84
55070;BME280;40967;52.070;8.596;2023-01-29T00:33:43;101869.78;;;-0.82;91.71
55070;BME280;40967;52.070;8.596;2023-01-29T00:36:11;101848.47;;;-0.90;91.43
55070;BME280;40967;52.070;8.596;2023-01-29T00:38:37;101867.63;;;-0.79;91.19
55070;BME280;40967;52.070;8.596;2023-01-29T00:41:11;101871.13;;;-0.78;91.19
55070;BME280;40967;52.070;8.596;2023-01-29T00:43:56;101872.78;;;-0.77;90.96
55070;BME280;40967;52.070;8.596;2023-01-29T00:46:40;101861.63;;;-0.81;91.01
55070;BME280;40967;52.070;8.596;2023-01-29T00:49:07;101860.78;;;-0.81;91.24
55070;BME280;40967;52.070;8.596;2023-01-29T00:51:32;101860.94;;;-0.83;91.05
55070;BME280;40967;52.070;8.596;2023-01-29T00:53:58;101865.31;;;-0.82;91.22
55070;BME280;40967;52.070;8.596;2023-01-29T00:56:25;101866.28;;;-0.83;90.91
55070;BME280;40967;52.070;8.596;2023-01-29T00:58:51;101848.81;;;-0.85;91.16
55070;BME280;40967;52.070;8.596;2023-01-29T01:01:17;101855.13;;;-0.86;91.09
55070;BME280;40967;52.070;8.596;2023-01-29T01:04:03;101863.63;;;-0.83;91.12
55070;BME280;40967;52.070;8.596;2023-01-29T01:06:29;101856.28;;;-0.81;91.04
55070;BME280;40967;52.070;8.596;2023-01-29T01:08:54;101845.97;;;-0.84;91.00
55070;BME280;40967;52.070;8.596;2023-01-29T01:11:38;101852.97;;;-0.83;90.92
55070;BME280;40967;52.070;8.596;2023-01-29T01:14:03;101862.78;;;-0.83;90.98
55070;BME280;40967;52.070;8.596;2023-01-29T01:16:29;101852.97;;;-0.83;90.77
55070;BME280;40967;52.070;8.596;2023-01-29T01:18:54;101831.63;;;-0.91;91.06
55070;BME280;40967;52.070;8.596;2023-01-29T01:21:19;101834.97;;;-0.81;90.90
55070;BME280;40967;52.070;8.596;2023-01-29T01:23:45;101826.81;;;-0.79;90.84
55070;BME280;40967;52.070;8.596;2023-01-29T01:26:11;101813.66;;;-0.73;91.04
55070;BME280;40967;52.070;8.596;2023-01-29T01:28:36;101808.69;;;-0.68;90.73
55070;BME280;40967;52.070;8.596;2023-01-29T01:31:10;101806.53;;;-0.64;90.54
55070;BME280;40967;52.070;8.596;2023-01-29T01:33:36;101799.88;;;-0.60;90.53
55070;BME280;40967;52.070;8.596;2023-01-29T01:36:02;101802.03;;;-0.64;90.16
55070;BME280;40967;52.070;8.596;2023-01-29T01:38:28;101794.88;;;-0.71;90.45
55070;BME280;40967;52.070;8.596;2023-01-29T01:40:53;101807.69;;;-0.67;90.24
55070;BME280;40967;52.070;8.596;2023-01-29T01:43:19;101799.38;;;-0.72;90.67
55070;BME280;40967;52.070;8.596;2023-01-29T01:45:44;101794.69;;;-0.78;90.20
55070;BME280;40967;52.070;8.596;2023-01-29T01:48:11;101813.00;;;-0.83;90.29
55070;BME280;40967;52.070;8.596;2023-01-29T01:50:43;101812.16;;;-0.91;90.70
55070;BME280;40967;52.070;8.596;2023-01-29T01:53:12;101802.16;;;-0.97;90.78
55070;BME280;40967;52.070;8.596;2023-01-29T01:55:47;101821.16;;;-0.92;90.74
55070;BME280;40967;52.070;8.596;2023-01-29T01:58:21;101818.28;;;-0.99;90.65
55070;BME280;40967;52.070;8.596;2023-01-29T02:00:48;101822.81;;;-0.99;90.91
55070;BME280;40967;52.070;8.596;2023-01-29T02:03:14;101826.94;;;-0.97;90.67
55070;BME280;40967;52.070;8.596;2023-01-29T02:06:00;101815.97;;;-1.02;91.11
55070;BME280;40967;52.070;8.596;2023-01-29T02:08:55;101832.94;;;-0.95;90.95
55070;BME280;40967;52.070;8.596;2023-01-29T02:11:40;101821.63;;;-1.05;90.65
55070;BME280;40967;52.070;8.596;2023-01-29T02:14:06;101833.28;;;-0.98;91.13
55070;BME280;40967;52.070;8.596;2023-01-29T02:16:33;101838.44;;;-0.96;90.86
55070;BME280;40967;52.070;8.596;2023-01-29T02:18:59;101833.28;;;-0.98;91.08
55070;BME280;40967;52.070;8.596;2023-01-29T02:27:02;101829.31;;;-0.94;91.38
55070;BME280;40967;52.070;8.596;2023-01-29T02:32:37;101847.47;;;-0.89;91.00
55070;BME280;40967;52.070;8.596;2023-01-29T02:35:18;101849.28;;;-0.90;91.23
55070;BME280;40967;52.070;8.596;2023-01-29T02:40:59;101853.94;;;-0.92;91.18
55070;BME280;40967;52.070;8.596;2023-01-29T02:43:42;101843.78;;;-0.88;91.21
55070;BME280;40967;52.070;8.596;2023-01-29T02:48:41;101859.13;;;-0.82;91.40
55070;BME280;40967;52.070;8.596;2023-01-29T02:51:16;101845.47;;;-0.79;91.17
55070;BME280;40967;52.070;8.596;2023-01-29T02:54:07;101849.66;;;-0.77;91.25
55070;BME280;40967;52.070;8.596;2023-01-29T02:57:19;101841.31;;;-0.74;91.08
55070;BME280;40967;52.070;8.596;2023-01-29T02:59:53;101832.66;;;-0.76;90.68
55070;BME280;40967;52.070;8.596;2023-01-29T03:02:44;101841.31;;;-0.74;90.94
55070;BME280;40967;52.070;8.596;2023-01-29T03:05:17;101831.19;;;-0.70;90.92
55070;BME280;40967;52.070;8.596;2023-01-29T03:07:52;101834.34;;;-0.67;91.04
55070;BME280;40967;52.070;8.596;2023-01-29T03:10:34;101829.69;;;-0.65;90.80
55070;BME280;40967;52.070;8.596;2023-01-29T03:13:13;101836.66;;;-0.64;90.83
55070;BME280;40967;52.070;8.596;2023-01-29T03:15:44;101834.16;;;-0.65;90.73
55070;BME280;40967;52.070;8.596;2023-01-29T03:18:15;101828.34;;;-0.69;90.63
55070;BME280;40967;52.070;8.596;2023-01-29T03:20:48;101834.00;;;-0.64;90.75
55070;BME280;40967;52.070;8.596;2023-01-29T03:23:25;101823.00;;;-0.69;90.91
55070;BME280;40967;52.070;8.596;2023-01-29T03:26:12;101822.66;;;-0.66;90.67
55070;BME280;40967;52.070;8.596;2023-01-29T03:28:58;101828.50;;;-0.62;91.08
55070;BME280;40967;52.070;8.596;2023-01-29T03:31:43;101817.66;;;-0.61;90.71
55070;BME280;40967;52.070;8.596;2023-01-29T03:34:29;101811.03;;;-0.65;91.16
55070;BME280;40967;52.070;8.596;2023-01-29T03:37:14;101818.34;;;-0.67;90.98
55070;BME280;40967;52.070;8.596;2023-01-29T03:39:43;101799.19;;;-0.70;90.87
55070;BME280;40967;52.070;8.596;2023-01-29T03:42:43;101806.53;;;-0.64;91.24
55070;BME280;40967;52.070;8.596;2023-01-29T03:45:42;101800.53;;;-0.66;91.48
55070;BME280;40967;52.070;8.596;2023-01-29T03:50:59;101796.34;;;-0.69;91.42
55070;BME280;40967;52.070;8.596;2023-01-29T03:56:01;101803.38;;;-0.68;91.48
55070;BME280;40967;52.070;8.596;2023-01-29T04:01:25;101799.19;;;-0.62;91.78
55070;BME280;40967;52.070;8.596;2023-01-29T04:04:00;101791.19;;;-0.62;91.33
55070;BME280;40967;52.070;8.596;2023-01-29T04:06:31;101789.53;;;-0.63;91.82
55070;BME280;40967;52.070;8.596;2023-01-29T04:09:10;101777.56;;;-0.59;91.58
55070;BME280;40967;52.070;8.596;2023-01-29T04:11:46;101782.88;;;-0.59;91.51
55070;BME280;40967;52.070;8.596;2023-01-29T04:14:14;101770.22;;;-0.65;91.89
55070;BME280;40967;52.070;8.596;2023-01-29T04:16:44;101778.53;;;-0.60;91.78
55070;BME280;40967;52.070;8.596;2023-01-29T04:19:11;101772.88;;;-0.57;91.67
55070;BME280;40967;52.070;8.596;2023-01-29T04:21:37;101763.88;;;-0.56;91.62
55070;BME280;40967;52.070;8.596;2023-01-29T04:24:04;101747.06;;;-0.57;91.60
55070;BME280;40967;52.070;8.596;2023-01-29T04:32:14;101712.41;;;-0.57;91.58
55070;BME280;40967;52.070;8.596;2023-01-29T04:34:50;101705.91;;;-0.54;91.74
55070;BME280;40967;52.070;8.596;2023-01-29T04:37:55;101705.75;;;-0.53;91.95
55070;BME280;40967;52.070;8.596;2023-01-29T04:40:33;101706.72;;;-0.54;91.93
55070;BME280;40967;52.070;8.596;2023-01-29T04:46:45;101696.91;;;-0.53;92.12
55070;BME280;40967;52.070;8.596;2023-01-29T04:55:16;101687.25;;;-0.54;91.17
55070;BME280;40967;52.070;8.596;2023-01-29T05:00:27;101670.94;;;-0.67;91.18
55070;BME280;40967;52.070;8.596;2023-01-29T05:02:55;101695.09;;;-0.53;91.34
55070;BME280;40967;52.070;8.596;2023-01-29T05:05:21;101686.63;;;-0.64;91.21
55070;BME280;40967;52.070;8.596;2023-01-29T05:07:47;101668.28;;;-0.75;91.29
55070;BME280;40967;52.070;8.596;2023-01-29T05:10:15;101692.91;;;-0.57;91.90
55070;BME280;40967;52.070;8.596;2023-01-29T05:12:45;101682.41;;;-0.59;91.76
55070;BME280;40967;52.070;8.596;2023-01-29T05:15:18;101696.41;;;-0.57;92.04
55070;BME280;40967;52.070;8.596;2023-01-29T05:17:44;101695.91;;;-0.60;91.76
55070;BME280;40967;52.070;8.596;2023-01-29T05:20:10;101704.44;;;-0.65;91.46
55070;BME280;40967;52.070;8.596;2023-01-29T05:22:40;101710.91;;;-0.67;91.76
55070;BME280;40967;52.070;8.596;2023-01-29T05:25:19;101713.25;;;-0.72;91.69
55070;BME280;40967;52.070;8.596;2023-01-29T05:27:48;101707.75;;;-0.79;91.75
55070;BME280;40967;52.070;8.596;2023-01-29T05:30:38;101716.41;;;-0.85;91.76
55070;BME280;40967;52.070;8.596;2023-01-29T05:33:11;101723.09;;;-0.81;92.08
55070;BME280;40967;52.070;8.596;2023-01-29T05:35:37;101728.25;;;-0.79;92.14
55070;BME280;40967;52.070;8.596;2023-01-29T05:38:03;101723.75;;;-0.79;92.41
55070;BME280;40967;52.070;8.596;2023-01-29T05:40:28;101720.06;;;-0.78;92.41
55070;BME280;40967;52.070;8.596;2023-01-29T05:42:53;101706.91;;;-0.79;92.91
55070;BME280;40967;52.070;8.596;2023-01-29T05:45:19;101717.09;;;-0.75;92.41
55070;BME280;40967;52.070;8.596;2023-01-29T05:47:45;101716.94;;;-0.73;92.59
55070;BME280;40967;52.070;8.596;2023-01-29T05:50:11;101722.09;;;-0.72;92.84
55070;BME280;40967;52.070;8.596;2023-01-29T05:52:38;101731.91;;;-0.72;92.67
55070;BME280;40967;52.070;8.596;2023-01-29T05:55:04;101732.25;;;-0.75;92.67
55070;BME280;40967;52.070;8.596;2023-01-29T05:57:29;101738.41;;;-0.75;92.93
55070;BME280;40967;52.070;8.596;2023-01-29T05:59:54;101747.06;;;-0.73;93.28
55070;BME280;40967;52.070;8.596;2023-01-29T06:02:20;101747.06;;;-0.73;93.05
55070;BME280;40967;52.070;8.596;2023-01-29T06:04:45;101747.56;;;-0.77;92.96
55070;BME280;40967;52.070;8.596;2023-01-29T06:07:11;101748.41;;;-0.77;93.30
55070;BME280;40967;52.070;8.596;2023-01-29T06:09:36;101748.41;;;-0.77;93.39
55070;BME280;40967;52.070;8.596;2023-01-29T06:12:02;101739.06;;;-0.81;93.23
55070;BME280;40967;52.070;8.596;2023-01-29T06:14:30;101742.56;;;-0.72;93.45
55070;BME280;40967;52.070;8.596;2023-01-29T06:16:56;101733.72;;;-0.73;93.67
55070;BME280;40967;52.070;8.596;2023-01-29T06:19:22;101744.88;;;-0.69;93.84
55070;BME280;40967;52.070;8.596;2023-01-29T06:21:47;101724.25;;;-0.75;93.56
55070;BME280;40967;52.070;8.596;2023-01-29T06:24:12;101738.25;;;-0.73;93.58
55070;BME280;40967;52.070;8.596;2023-01-29T06:26:38;101759.72;;;-0.67;93.60
55070;BME280;40967;52.070;8.596;2023-01-29T06:29:03;101755.06;;;-0.65;93.69
55070;BME280;40967;52.070;8.596;2023-01-29T06:31:29;101741.22;;;-0.76;93.48
55070;BME280;40967;52.070;8.596;2023-01-29T06:33:54;101768.72;;;-0.68;93.56
55070;BME280;40967;52.070;8.596;2023-01-29T06:36:19;101760.72;;;-0.68;93.74
55070;BME280;40967;52.070;8.596;2023-01-29T06:38:45;101755.41;;;-0.68;93.74
55070;BME280;40967;52.070;8.596;2023-01-29T06:41:16;101757.22;;;-0.68;93.66
55070;BME280;40967;52.070;8.596;2023-01-29T06:43:45;101755.25;;;-0.66;93.86
55070;BME280;40967;52.070;8.596;2023-01-29T06:46:11;101747.38;;;-0.76;93.78
55070;BME280;40967;52.070;8.596;2023-01-29T06:48:36;101760.41;;;-0.65;94.17
55070;BME280;40967;52.070;8.596;2023-01-29T06:51:06;101755.91;;;-0.64;94.12
55070;BME280;40967;52.070;8.596;2023-01-29T06:53:36;101740.06;;;-0.74;93.87
55070;BME280;40967;52.070;8.596;2023-01-29T06:56:01;101750.56;;;-0.64;94.32
55070;BME280;40967;52.070;8.596;2023-01-29T06:58:27;101712.59;;;-0.82;94.23
55070;BME280;40967;52.070;8.596;2023-01-29T07:00:52;101730.06;;;-0.64;94.52
55070;BME280;40967;52.070;8.596;2023-01-29T07:03:18;101737.88;;;-0.62;94.23
55070;BME280;40967;52.070;8.596;2023-01-29T07:05:50;101754.38;;;-0.59;94.10
55070;BME280;40967;52.070;8.596;2023-01-29T07:08:16;101751.03;;;-0.61;94.53
55070;BME280;40967;52.070;8.596;2023-01-29T07:10:42;101746.72;;;-0.62;94.41
55070;BME280;40967;52.070;8.596;2023-01-29T07:13:07;101754.56;;;-0.60;94.78
55070;BME280;40967;52.070;8.596;2023-01-29T07:15:32;101756.03;;;-0.66;94.27
55070;BME280;40967;52.070;8.596;2023-01-29T07:17:59;101759.38;;;-0.64;94.15
55070;BME280;40967;52.070;8.596;2023-01-29T07:20:29;101752.88;;;-0.69;94.30
55070;BME280;40967;52.070;8.596;2023-01-29T07:22:57;101763.22;;;-0.66;94.44
55070;BME280;40967;52.070;8.596;2023-01-29T07:25:24;101761.22;;;-0.64;94.62
55070;BME280;40967;52.070;8.596;2023-01-29T07:27:49;101757.56;;;-0.63;94.64
55070;BME280;40967;52.070;8.596;2023-01-29T07:30:15;101738.75;;;-0.70;94.69
55070;BME280;40967;52.070;8.596;2023-01-29T07:32:41;101740.06;;;-0.66;94.22
55070;BME280;40967;52.070;8.596;2023-01-29T07:35:07;101742.91;;;-0.59;94.23
55070;BME280;40967;52.070;8.596;2023-01-29T07:37:33;101719.91;;;-0.68;94.50
55070;BME280;40967;52.070;8.596;2023-01-29T07:39:58;101740.38;;;-0.61;94.37
55070;BME280;40967;52.070;8.596;2023-01-29T07:42:23;101742.41;;;-0.63;94.27
55070;BME280;40967;52.070;8.596;2023-01-29T07:44:49;101743.41;;;-0.72;94.37
55070;BME280;40967;52.070;8.596;2023-01-29T07:47:14;101749.91;;;-0.66;94.29
55070;BME280;40967;52.070;8.596;2023-01-29T07:49:40;101731.41;;;-0.68;94.67
55070;BME280;40967;52.070;8.596;2023-01-29T07:52:05;101724.25;;;-0.67;94.32
55070;BME280;40967;52.070;8.596;2023-01-29T07:54:30;101705.44;;;-0.74;94.12
55070;BME280;40967;52.070;8.596;2023-01-29T07:56:56;101678.47;;;-0.79;94.32
55070;BME280;40967;52.070;8.596;2023-01-29T07:59:21;101707.09;;;-0.73;94.48
55070;BME280;40967;52.070;8.596;2023-01-29T08:01:46;101716.25;;;-0.75;94.83
55070;BME280;40967;52.070;8.596;2023-01-29T08:04:12;101713.59;;;-0.75;94.93
55070;BME280;40967;52.070;8.596;2023-01-29T08:06:37;101720.91;;;-0.69;94.83
55070;BME280;40967;52.070;8.596;2023-01-29T08:09:02;101705.25;;;-0.72;95.02
55070;BME280;40967;52.070;8.596;2023-01-29T08:11:28;101698.25;;;-0.65;95.06
55070;BME280;40967;52.070;8.596;2023-01-29T08:13:53;101673.28;;;-0.72;94.78
55070;BME280;40967;52.070;8.596;2023-01-29T08:16:19;101667.97;;;-0.64;94.63
55070;BME280;40967;52.070;8.596;2023-01-29T08:18:44;101659.78;;;-0.63;94.53
55070;BME280;40967;52.070;8.596;2023-01-29T08:21:12;101651.47;;;-0.68;94.94
55070;BME280;40967;52.070;8.596;2023-01-29T08:23:38;101651.78;;;-0.63;95.12
55070;BME280;40967;52.070;8.596;2023-01-29T08:26:04;101659.28;;;-0.58;94.83
55070;BME280;40967;52.070;8.596;2023-01-29T08:28:29;101637.13;;;-0.67;94.85
55070;BME280;40967;52.070;8.596;2023-01-29T08:30:55;101657.94;;;-0.54;94.59
55070;BME280;40967;52.070;8.596;2023-01-29T08:33:20;101661.75;;;-0.57;94.45
55070;BME280;40967;52.070;8.596;2023-01-29T08:35:49;101651.44;;;-0.60;94.80
55070;BME280;40967;52.070;8.596;2023-01-29T08:38:15;101678.41;;;-0.55;94.46
55070;BME280;40967;52.070;8.596;2023-01-29T08:40:41;101679.94;;;-0.52;94.79
55070;BME280;40967;52.070;8.596;2023-01-29T08:43:07;101684.25;;;-0.51;95.12
55070;BME280;40967;52.070;8.596;2023-01-29T08:45:36;101679.22;;;-0.46;94.84
55070;BME280;40967;52.070;8.596;2023-01-29T08:48:02;101677.59;;;-0.47;94.84
55070;BME280;40967;52.070;8.596;2023-01-29T08:50:28;101678.41;;;-0.39;94.97
55070;BME280;40967;52.070;8.596;2023-01-29T08:52:57;101666.72;;;-0.38;94.53
55070;BME280;40967;52.070;8.596;2023-01-29T08:55:24;101665.56;;;-0.35;94.33
55070;BME280;40967;52.070;8.596;2023-01-29T08:57:49;101660.38;;;-0.29;94.33
55070;BME280;40967;52.070;8.596;2023-01-29T09:00:15;101654.19;;;-0.29;93.97
55070;BME280;40967;52.070;8.596;2023-01-29T09:02:40;101641.03;;;-0.31;94.07
55070;BME280;40967;52.070;8.596;2023-01-29T09:05:06;101651.19;;;-0.26;93.50
55070;BME280;40967;52.070;8.596;2023-01-29T09:07:32;101655.03;;;-0.29;93.38
55070;BME280;40967;52.070;8.596;2023-01-29T09:09:57;101652.38;;;-0.29;93.76
55070;BME280;40967;52.070;8.596;2023-01-29T09:12:22;101654.19;;;-0.29;93.29
55070;BME280;40967;52.070;8.596;2023-01-29T09:14:48;101657.03;;;-0.23;93.88
55070;BME280;40967;52.070;8.596;2023-01-29T09:17:13;101657.97;;;-0.16;93.54
55070;BME280;40967;52.070;8.596;2023-01-29T09:19:39;101652.63;;;-0.08;93.22
55070;BME280;40967;52.070;8.596;2023-01-29T09:22:05;101657.59;;;-0.05;93.03
55070;BME280;40967;52.070;8.596;2023-01-29T09:24:30;101642.94;;;-0.09;93.06
55070;BME280;40967;52.070;8.596;2023-01-29T09:26:57;101662.59;;;-0.02;93.17
55070;BME280;40967;52.070;8.596;2023-01-29T09:29:22;101640.28;;;-0.09;93.41
55070;BME280;40967;52.070;8.596;2023-01-29T09:31:47;101653.91;;;0.05;92.93
55070;BME280;40967;52.070;8.596;2023-01-29T09:34:13;101644.75;;;-0.01;92.83
55070;BME280;40967;52.070;8.596;2023-01-29T09:36:38;101666.03;;;0.07;92.53
55070;BME280;40967;52.070;8.596;2023-01-29T09:39:04;101660.56;;;0.09;93.02
55070;BME280;40967;52.070;8.596;2023-01-29T09:44:18;101663.06;;;0.10;92.59
55070;BME280;40967;52.070;8.596;2023-01-29T09:46:47;101662.88;;;0.12;92.73
55070;BME280;40967;52.070;8.596;2023-01-29T09:52:02;101653.16;;;0.19;92.56
55070;BME280;40967;52.070;8.596;2023-01-29T09:54:32;101660.47;;;0.25;92.13
55070;BME280;40967;52.070;8.596;2023-01-29T09:56:59;101651.94;;;0.29;91.72
55070;BME280;40967;52.070;8.596;2023-01-29T09:59:30;101651.09;;;0.29;91.96
55070;BME280;40967;52.070;8.596;2023-01-29T10:15:34;101603.34;;;0.42;91.41
55070;BME280;40967;52.070;8.596;2023-01-29T10:23:37;101573.31;;;0.40;90.95
55070;BME280;40967;52.070;8.596;2023-01-29T10:26:10;101592.22;;;0.53;91.07
55070;BME280;40967;52.070;8.596;2023-01-29T10:28:41;101594.38;;;0.57;91.45
55070;BME280;40967;52.070;8.596;2023-01-29T10:31:28;101609.00;;;0.61;91.24
55070;BME280;40967;52.070;8.596;2023-01-29T10:33:59;101591.16;;;0.62;91.24
55070;BME280;40967;52.070;8.596;2023-01-29T10:36:34;101602.06;;;0.75;91.76
55070;BME280;40967;52.070;8.596;2023-01-29T10:39:00;101581.16;;;0.78;91.15
55070;BME280;40967;52.070;8.596;2023-01-29T10:41:45;101587.63;;;0.84;90.57
55070;BME280;40967;52.070;8.596;2023-01-29T10:44:34;101567.66;;;0.80;90.86
55070;BME280;40967;52.070;8.596;2023-01-29T10:49:44;101573.47;;;0.98;89.99
55070;BME280;40967;52.070;8.596;2023-01-29T11:00:58;101578.97;;;0.82;90.48
55070;BME280;40967;52.070;8.596;2023-01-29T11:08:48;101565.44;;;0.98;90.53
55070;BME280;40967;52.070;8.596;2023-01-29T11:11:18;101545.09;;;0.97;90.18
55070;BME280;40967;52.070;8.596;2023-01-29T11:13:52;101541.41;;;0.98;89.70
55070;BME280;40967;52.070;8.596;2023-01-29T11:16:18;101540.41;;;0.99;89.71
55070;BME280;40967;52.070;8.596;2023-01-29T11:19:02;101540.03;;;1.02;89.96
55070;BME280;40967;52.070;8.596;2023-01-29T11:21:28;101537.00;;;1.05;89.28
55070;BME280;40967;52.070;8.596;2023-01-29T11:24:11;101536.34;;;1.03;89.83
55070;BME280;40967;52.070;8.596;2023-01-29T11:26:41;101529.16;;;1.03;89.33
55070;BME280;40967;52.070;8.596;2023-01-29T11:31:51;101540.31;;;1.07;89.47
55070;BME280;40967;52.070;8.596;2023-01-29T11:34:20;101533.94;;;1.08;89.50
55070;BME280;40967;52.070;8.596;2023-01-29T11:37:02;101523.06;;;1.09;90.01
55070;BME280;40967;52.070;8.596;2023-01-29T11:39:30;101528.72;;;1.14;90.01
55070;BME280;40967;52.070;8.596;2023-01-29T11:47:08;101507.34;;;1.14;89.58
55070;BME280;40967;52.070;8.596;2023-01-29T11:49:34;101492.31;;;1.28;89.74
55070;BME280;40967;52.070;8.596;2023-01-29T11:52:03;101498.84;;;1.26;89.13
55070;BME280;40967;52.070;8.596;2023-01-29T11:54:33;101500.84;;;1.24;89.96
55070;BME280;40967;52.070;8.596;2023-01-29T11:57:01;101491.00;;;1.24;89.18
55070;BME280;40967;52.070;8.596;2023-01-29T12:02:21;101479.66;;;1.37;89.80
55070;BME280;40967;52.070;8.596;2023-01-29T12:04:48;101475.50;;;1.34;90.05
55070;BME280;40967;52.070;8.596;2023-01-29T12:07:16;101483.78;;;1.39;89.67
55070;BME280;40967;52.070;8.596;2023-01-29T12:09:57;101472.38;;;1.45;89.29
55070;BME280;40967;52.070;8.596;2023-01-29T12:12:29;101465.38;;;1.44;88.93
55070;BME280;40967;52.070;8.596;2023-01-29T12:15:14;101461.84;;;1.44;89.37
55070;BME280;40967;52.070;8.596;2023-01-29T12:17:44;101450.72;;;1.40;89.26
55070;BME280;40967;52.070;8.596;2023-01-29T12:20:18;101447.66;;;1.43;89.98
55070;BME280;40967;52.070;8.596;2023-01-29T12:25:54;101442.63;;;1.55;89.78
55070;BME280;40967;52.070;8.596;2023-01-29T12:31:25;101416.94;;;1.54;88.91
55070;BME280;40967;52.070;8.596;2023-01-29T12:34:00;101404.31;;;1.48;88.95
55070;BME280;40967;52.070;8.596;2023-01-29T12:36:35;101423.47;;;1.51;88.51
55070;BME280;40967;52.070;8.596;2023-01-29T12:39:02;101408.56;;;1.42;89.07
55070;BME280;40967;52.070;8.596;2023-01-29T12:44:19;101407.00;;;1.48;88.95
55070;BME280;40967;52.070;8.596;2023-01-29T12:46:50;101409.28;;;1.51;89.12
55070;BME280;40967;52.070;8.596;2023-01-29T12:49:32;101403.34;;;1.55;88.69
55070;BME280;40967;52.070;8.596;2023-01-29T12:52:15;101405.84;;;1.57;88.97
55070;BME280;40967;52.070;8.596;2023-01-29T12:54:47;101384.63;;;1.55;88.24
55070;BME280;40967;52.070;8.596;2023-01-29T12:57:33;101392.38;;;1.65;88.52
55070;BME280;40967;52.070;8.596;2023-01-29T13:00:14;101377.31;;;1.64;87.92
55070;BME280;40967;52.070;8.596;2023-01-29T13:02:52;101386.69;;;1.74;87.81
55070;BME280;40967;52.070;8.596;2023-01-29T13:05:26;101383.00;;;1.75;87.41
55070;BME280;40967;52.070;8.596;2023-01-29T13:08:02;101386.69;;;1.74;87.89
55070;BME280;40967;52.070;8.596;2023-01-29T13:10:33;101372.59;;;1.66;87.29
55070;BME280;40967;52.070;8.596;2023-01-29T13:13:11;101377.97;;;1.66;87.81
55070;BME280;40967;52.070;8.596;2023-01-29T13:15:40;101364.34;;;1.61;87.67
55070;BME280;40967;52.070;8.596;2023-01-29T13:21:00;101362.75;;;1.66;87.54
55070;BME280;40967;52.070;8.596;2023-01-29T13:23:55;101366.81;;;1.62;87.10
55070;BME280;40967;52.070;8.596;2023-01-29T13:26:21;101369.50;;;1.62;87.27
55070;BME280;40967;52.070;8.596;2023-01-29T13:28:48;101365.16;;;1.61;87.84
55070;BME280;40967;52.070;8.596;2023-01-29T13:31:26;101353.06;;;1.65;87.44
55070;BME280;40967;52.070;8.596;2023-01-29T13:34:15;101348.72;;;1.64;87.00
55070;BME280;40967;52.070;8.596;2023-01-29T13:36:45;101347.53;;;1.67;87.74
55070;BME280;40967;52.070;8.596;2023-01-29T13:39:29;101340.72;;;1.64;87.79
55070;BME280;40967;52.070;8.596;2023-01-29T13:41:57;101348.97;;;1.69;87.30
55070;BME280;40967;52.070;8.596;2023-01-29T13:44:36;101341.91;;;1.62;87.61
55070;BME280;40967;52.070;8.596;2023-01-29T13:47:10;101343.78;;;1.61;87.53
55070;BME280;40967;52.070;8.596;2023-01-29T13:49:42;101332.19;;;1.54;87.53
55070;BME280;40967;52.070;8.596;2023-01-29T13:54:56;101332.47;;;1.45;87.82
55070;BME280;40967;52.070;8.596;2023-01-29T13:59:57;101322.69;;;1.52;88.06
55070;BME280;40967;52.070;8.596;2023-01-29T14:02:24;101329.19;;;1.64;88.15
55070;BME280;40967;52.070;8.596;2023-01-29T14:04:49;101331.03;;;1.63;87.72
55070;BME280;40967;52.070;8.596;2023-01-29T14:07:38;101331.84;;;1.64;87.61
55070;BME280;40967;52.070;8.596;2023-01-29T14:10:21;101325.69;;;1.63;87.77
55070;BME280;40967;52.070;8.596;2023-01-29T14:12:49;101325.84;;;1.62;88.63
55070;BME280;40967;52.070;8.596;2023-01-29T14:15:19;101327.53;;;1.63;88.17
55070;BME280;40967;52.070;8.596;2023-01-29T14:23:07;101312.88;;;1.59;87.76
55070;BME280;40967;52.070;8.596;2023-01-29T14:25:42;101326.94;;;1.67;88.13
55070;BME280;40967;52.070;8.596;2023-01-29T14:28:25;101304.41;;;1.55;87.56
55070;BME280;40967;52.070;8.596;2023-01-29T14:30:53;101319.13;;;1.66;88.08
55070;BME280;40967;52.070;8.596;2023-01-29T14:33:34;101306.38;;;1.68;87.29
55070;BME280;40967;52.070;8.596;2023-01-29T14:36:04;101306.00;;;1.71;87.82
55070;BME280;40967;52.070;8.596;2023-01-29T14:38:30;101311.78;;;1.74;87.75
55070;BME280;40967;52.070;8.596;2023-01-29T14:41:25;101304.41;;;1.76;86.98
55070;BME280;40967;52.070;8.596;2023-01-29T14:46:56;101312.81;;;1.73;87.53
55070;BME280;40967;52.070;8.596;2023-01-29T14:49:47;101304.34;;;1.70;86.89
55070;BME280;40967;52.070;8.596;2023-01-29T14:52:13;101297.72;;;1.66;86.67
55070;BME280;40967;52.070;8.596;2023-01-29T14:54:40;101291.09;;;1.62;86.56
55070;BME280;40967;52.070;8.596;2023-01-29T14:57:09;101267.06;;;1.41;86.92
55070;BME280;40967;52.070;8.596;2023-01-29T15:02:43;101296.13;;;1.50;87.18
55070;BME280;40967;52.070;8.596;2023-01-29T15:05:17;101294.69;;;1.48;87.30
55070;BME280;40967;52.070;8.596;2023-01-29T15:10:41;101292.44;;;1.51;87.22
55070;BME280;40967;52.070;8.596;2023-01-29T15:13:12;101293.47;;;1.50;87.44
55070;BME280;40967;52.070;8.596;2023-01-29T15:15:48;101293.25;;;1.52;88.27